createdAt,value
2018-05-21T00:02:26.498Z,8.73
2018-05-21T00:04:54.046Z,9.23
2018-05-21T00:07:21.579Z,8.43
2018-05-21T00:09:49.621Z,8.13
2018-05-21T00:12:17.187Z,7.73
2018-05-21T00:14:44.705Z,12.00
2018-05-21T00:17:12.193Z,8.57
2018-05-21T00:19:39.688Z,9.00
2018-05-21T00:22:07.197Z,7.63
2018-05-21T00:24:47.143Z,8.73
2018-05-21T00:27:14.722Z,8.57
2018-05-21T00:29:42.251Z,11.30
2018-05-21T00:32:10.687Z,10.20
2018-05-21T00:34:38.507Z,9.00
2018-05-21T00:37:06.635Z,10.20
2018-05-21T00:39:34.445Z,8.60
2018-05-21T00:42:02.008Z,9.50
2018-05-21T00:44:29.510Z,9.63
2018-05-21T00:46:57.019Z,8.63
2018-05-21T00:49:24.519Z,14.33
2018-05-21T00:51:52.039Z,9.03
2018-05-21T00:54:19.542Z,8.20
2018-05-21T00:56:47.067Z,7.80
2018-05-21T00:59:14.551Z,7.97
2018-05-21T01:01:42.098Z,8.90
2018-05-21T01:04:09.610Z,8.13
2018-05-21T01:06:37.123Z,11.47
2018-05-21T01:09:05.493Z,8.00
2018-05-21T01:11:32.983Z,8.07
2018-05-21T01:14:00.484Z,9.10
2018-05-21T01:16:27.977Z,8.40
2018-05-21T01:18:55.530Z,8.67
2018-05-21T01:21:23.013Z,10.23
2018-05-21T01:23:50.496Z,7.20
2018-05-21T01:26:18.019Z,11.40
2018-05-21T01:28:45.518Z,8.33
2018-05-21T01:31:13.018Z,9.37
2018-05-21T01:33:40.528Z,11.87
2018-05-21T01:36:08.027Z,12.50
2018-05-21T01:38:35.559Z,9.67
2018-05-21T01:41:03.183Z,12.80
2018-05-21T01:43:30.649Z,9.10
2018-05-21T01:45:58.178Z,9.97
2018-05-21T01:48:25.721Z,8.90
2018-05-21T01:50:53.211Z,8.47
2018-05-21T01:53:20.726Z,13.53
2018-05-21T01:55:48.237Z,11.23
2018-05-21T01:58:15.715Z,9.27
2018-05-21T02:00:43.254Z,9.40
2018-05-21T02:03:10.737Z,9.40
2018-05-21T02:05:38.225Z,9.60
2018-05-21T02:08:05.756Z,10.80
2018-05-21T02:10:33.236Z,11.73
2018-05-21T02:13:00.798Z,10.13
2018-05-21T02:15:28.303Z,9.93
2018-05-21T02:17:55.795Z,9.27
2018-05-21T02:20:23.299Z,11.63
2018-05-21T02:22:50.861Z,11.53
2018-05-21T02:25:18.363Z,10.13
2018-05-21T02:27:45.856Z,13.23
2018-05-21T02:30:13.375Z,9.03
2018-05-21T02:32:40.894Z,8.57
2018-05-21T02:35:08.411Z,10.57
2018-05-21T02:37:35.928Z,9.40
2018-05-21T02:40:03.415Z,9.20
2018-05-21T02:42:30.938Z,12.73
2018-05-21T02:44:58.425Z,10.03
2018-05-21T02:47:25.916Z,8.13
2018-05-21T02:49:53.403Z,9.03
2018-05-21T02:52:20.915Z,10.60
2018-05-21T02:54:48.391Z,11.87
2018-05-21T02:57:15.875Z,10.47
2018-05-21T02:59:43.386Z,9.80
2018-05-21T03:02:10.883Z,10.10
2018-05-21T03:04:38.378Z,9.73
2018-05-21T03:07:05.880Z,10.13
2018-05-21T03:09:33.358Z,9.63
2018-05-21T03:12:00.872Z,12.00
2018-05-21T03:14:28.336Z,8.40
2018-05-21T03:16:55.856Z,9.53
2018-05-21T03:19:23.360Z,8.87
2018-05-21T03:21:50.848Z,9.60
2018-05-21T03:24:18.355Z,11.27
2018-05-21T03:26:45.867Z,11.27
2018-05-21T03:29:13.450Z,8.80
2018-05-21T03:31:41.004Z,10.73
2018-05-21T03:34:08.491Z,9.30
2018-05-21T03:36:35.998Z,10.07
2018-05-21T03:39:03.540Z,10.53
2018-05-21T03:41:31.075Z,10.57
2018-05-21T03:43:58.534Z,10.33
2018-05-21T03:46:26.010Z,9.47
2018-05-21T03:48:53.561Z,11.70
2018-05-21T03:51:21.075Z,12.73
2018-05-21T03:53:48.575Z,15.33
2018-05-21T03:56:16.126Z,10.17
2018-05-21T03:58:55.563Z,11.00
2018-05-21T04:01:34.905Z,11.40
2018-05-21T04:04:02.402Z,11.30
2018-05-21T04:06:30.792Z,10.50
2018-05-21T04:08:58.326Z,10.83
2018-05-21T04:11:25.823Z,10.83
2018-05-21T04:13:53.316Z,12.20
2018-05-21T04:16:20.801Z,10.47
2018-05-21T04:18:48.306Z,14.50
2018-05-21T04:21:15.805Z,11.40
2018-05-21T04:23:43.309Z,11.27
2018-05-21T04:26:10.818Z,10.50
2018-05-21T04:28:38.311Z,10.70
2018-05-21T04:31:05.818Z,11.03
2018-05-21T04:33:33.316Z,10.77
2018-05-21T04:36:00.780Z,12.10
2018-05-21T04:38:28.280Z,10.90
2018-05-21T04:40:55.762Z,9.63
2018-05-21T04:43:23.229Z,9.60
2018-05-21T04:45:50.718Z,10.30
2018-05-21T04:48:18.205Z,10.67
2018-05-21T04:50:45.722Z,10.23
2018-05-21T04:53:13.212Z,8.70
2018-05-21T04:55:40.771Z,10.00
2018-05-21T04:58:08.221Z,9.17
2018-05-21T05:00:35.742Z,8.80
2018-05-21T05:03:03.302Z,11.53
2018-05-21T05:05:30.788Z,9.03
2018-05-21T05:07:58.255Z,12.90
2018-05-21T05:10:25.722Z,9.50
2018-05-21T05:12:53.206Z,12.93
2018-05-21T05:15:20.663Z,10.50
2018-05-21T05:17:48.188Z,9.30
2018-05-21T05:20:15.657Z,12.80
2018-05-21T05:22:43.154Z,9.40
2018-05-21T05:25:10.693Z,9.03
2018-05-21T05:27:38.154Z,10.13
2018-05-21T05:30:05.671Z,10.03
2018-05-21T05:32:33.152Z,10.13
2018-05-21T05:35:00.691Z,10.23
2018-05-21T05:37:28.162Z,9.87
2018-05-21T05:39:55.653Z,9.53
2018-05-21T05:42:23.115Z,9.30
2018-05-21T05:44:50.587Z,8.97
2018-05-21T05:47:18.066Z,11.30
2018-05-21T05:49:45.573Z,11.97
2018-05-21T05:52:13.235Z,9.47
2018-05-21T05:54:40.711Z,8.20
2018-05-21T05:57:08.192Z,14.10
2018-05-21T05:59:35.684Z,8.83
2018-05-21T06:02:03.166Z,9.53
2018-05-21T06:04:30.625Z,8.90
2018-05-21T06:06:58.338Z,8.70
2018-05-21T06:09:25.972Z,10.50
2018-05-21T06:11:53.459Z,9.20
2018-05-21T06:14:20.934Z,8.60
2018-05-21T06:16:48.425Z,10.50
2018-05-21T06:19:15.890Z,8.03
2018-05-21T06:21:43.354Z,8.83
2018-05-21T06:24:10.831Z,8.27
2018-05-21T06:26:38.283Z,9.07
2018-05-21T06:29:05.764Z,7.23
2018-05-21T06:31:33.239Z,8.73
2018-05-21T06:34:01.005Z,7.70
2018-05-21T06:36:28.443Z,8.40
2018-05-21T06:38:55.926Z,6.87
2018-05-21T06:41:23.428Z,6.90
2018-05-21T06:43:50.907Z,7.20
2018-05-21T06:48:57.016Z,12.63
2018-05-21T06:51:24.597Z,6.87
2018-05-21T06:53:52.065Z,7.10
2018-05-21T06:56:19.611Z,6.90
2018-05-21T06:58:47.085Z,5.80
2018-05-21T07:01:14.599Z,8.97
2018-05-21T07:03:42.095Z,6.20
2018-05-21T07:06:09.550Z,6.60
2018-05-21T07:08:37.039Z,6.23
2018-05-21T07:11:04.500Z,6.07
2018-05-21T07:13:31.959Z,7.70
2018-05-21T07:15:59.454Z,6.87
2018-05-21T07:18:26.935Z,7.57
2018-05-21T07:20:54.446Z,8.50
2018-05-21T07:23:21.951Z,6.90
2018-05-21T07:25:49.464Z,8.43
2018-05-21T07:28:16.935Z,7.10
2018-05-21T07:30:44.705Z,9.23
2018-05-21T07:33:12.174Z,10.03
2018-05-21T07:35:39.623Z,9.73
2018-05-21T07:38:07.482Z,9.70
2018-05-21T07:40:35.618Z,10.10
2018-05-21T07:43:03.093Z,9.00
2018-05-21T07:45:30.647Z,6.40
2018-05-21T07:47:58.155Z,8.20
2018-05-21T07:50:25.623Z,12.20
2018-05-21T07:52:53.139Z,8.77
2018-05-21T07:55:20.661Z,8.20
2018-05-21T07:57:48.177Z,10.43
2018-05-21T08:00:15.661Z,8.30
2018-05-21T08:02:43.129Z,11.80
2018-05-21T08:05:10.664Z,8.20
2018-05-21T08:07:38.065Z,7.50
2018-05-21T08:10:05.550Z,7.13
2018-05-21T08:12:33.012Z,7.80
2018-05-21T08:15:00.491Z,6.57
2018-05-21T08:17:27.960Z,7.67
2018-05-21T08:19:55.441Z,12.20
2018-05-21T08:22:23.782Z,6.30
2018-05-21T08:24:51.254Z,6.60
2018-05-21T08:27:18.795Z,6.77
2018-05-21T08:29:46.311Z,7.27
2018-05-21T08:32:13.748Z,13.30
2018-05-21T08:34:41.200Z,9.90
2018-05-21T08:37:08.801Z,8.57
2018-05-21T08:39:36.274Z,10.83
2018-05-21T08:42:03.753Z,12.40
2018-05-21T08:44:31.222Z,8.63
2018-05-21T08:46:58.709Z,6.40
2018-05-21T08:49:26.165Z,5.80
2018-05-21T08:51:53.642Z,6.73
2018-05-21T08:54:21.137Z,7.20
2018-05-21T08:56:48.618Z,5.20
2018-05-21T08:59:16.091Z,7.87
2018-05-21T09:01:43.561Z,9.90
2018-05-21T09:04:11.039Z,6.43
2018-05-21T09:06:38.545Z,4.03
2018-05-21T09:09:06.058Z,5.10
2018-05-21T09:11:33.538Z,5.73
2018-05-21T09:14:01.048Z,3.60
2018-05-21T09:16:28.522Z,4.57
2018-05-21T09:18:56.010Z,7.63
2018-05-21T09:21:23.471Z,4.70
2018-05-21T09:23:51.012Z,4.40
2018-05-21T09:26:18.479Z,4.00
2018-05-21T09:28:45.952Z,4.00
2018-05-21T09:31:13.573Z,4.47
2018-05-21T09:46:37.224Z,4.03
2018-05-21T09:49:04.757Z,7.03
2018-05-21T09:51:32.231Z,7.43
2018-05-21T09:53:59.731Z,4.70
2018-05-21T09:56:27.203Z,3.97
2018-05-21T09:58:54.675Z,7.70
2018-05-21T10:01:22.165Z,5.13
2018-05-21T10:03:49.679Z,4.33
2018-05-21T10:06:17.144Z,4.37
2018-05-21T10:08:44.631Z,4.33
2018-05-21T10:11:12.117Z,8.47
2018-05-21T10:13:39.569Z,9.00
2018-05-21T10:16:07.078Z,3.57
2018-05-21T10:18:34.549Z,4.23
2018-05-21T10:21:02.060Z,8.13
2018-05-21T10:23:29.561Z,4.07
2018-05-21T10:25:57.119Z,4.93
2018-05-21T10:28:24.531Z,5.17
2018-05-21T10:30:52.008Z,9.73
2018-05-21T10:33:19.476Z,5.67
2018-05-21T10:35:47.664Z,3.93
2018-05-21T10:38:15.152Z,5.73
2018-05-21T10:40:42.689Z,5.90
2018-05-21T10:43:11.191Z,3.70
2018-05-21T10:45:38.647Z,8.07
2018-05-21T10:48:06.172Z,5.20
2018-05-21T10:50:33.642Z,6.00
2018-05-21T10:53:01.119Z,10.63
2018-05-21T10:55:28.678Z,3.83
2018-05-21T10:57:56.154Z,4.30
2018-05-21T11:00:23.727Z,5.93
2018-05-21T11:02:51.271Z,5.10
2018-05-21T11:05:18.799Z,4.07
2018-05-21T11:07:46.274Z,6.00
2018-05-21T11:10:13.831Z,4.40
2018-05-21T11:12:41.302Z,3.73
2018-05-21T11:15:08.878Z,3.77
2018-05-21T11:17:41.049Z,4.67
2018-05-21T11:20:08.518Z,7.00
2018-05-21T11:22:36.067Z,4.63
2018-05-21T11:25:03.575Z,4.53
2018-05-21T11:27:31.231Z,4.23
2018-05-21T11:29:58.813Z,4.80
2018-05-21T11:32:28.138Z,10.20
2018-05-21T11:34:55.600Z,9.60
2018-05-21T11:37:23.060Z,4.00
2018-05-21T11:39:50.610Z,3.40
2018-05-21T11:42:18.095Z,3.70
2018-05-21T11:44:45.570Z,8.90
2018-05-21T11:47:13.066Z,11.97
2018-05-21T11:49:41.453Z,4.40
2018-05-21T11:52:09.018Z,7.30
2018-05-21T11:54:36.514Z,3.83
2018-05-21T11:57:04.002Z,4.40
2018-05-21T11:59:31.626Z,3.63
2018-05-21T12:02:01.362Z,4.77
2018-05-21T12:04:28.883Z,4.10
2018-05-21T12:06:56.339Z,5.63
2018-05-21T12:09:23.852Z,3.83
2018-05-21T12:11:51.467Z,6.50
2018-05-21T12:14:18.942Z,3.53
2018-05-21T12:16:46.523Z,3.63
2018-05-21T12:19:14.016Z,3.80
2018-05-21T12:21:41.494Z,5.07
2018-05-21T12:24:09.088Z,4.13
2018-05-21T12:26:36.773Z,3.77
2018-05-21T12:29:04.247Z,5.80
2018-05-21T12:31:31.815Z,3.47
2018-05-21T12:33:59.333Z,3.30
2018-05-21T12:36:26.933Z,3.50
2018-05-21T12:38:54.464Z,8.50
2018-05-21T12:41:30.229Z,4.07
2018-05-21T12:43:57.769Z,4.30
2018-05-21T12:46:25.345Z,3.03
2018-05-21T12:48:52.887Z,3.23
2018-05-21T12:51:20.384Z,5.13
2018-05-21T12:53:48.496Z,4.77
2018-05-21T12:56:16.020Z,6.40
2018-05-21T12:58:47.300Z,3.60
2018-05-21T13:01:14.756Z,3.87
2018-05-21T13:03:42.814Z,7.40
2018-05-21T13:06:10.425Z,4.20
2018-05-21T13:08:37.990Z,2.90
2018-05-21T13:11:05.611Z,4.13
2018-05-21T13:13:33.117Z,4.27
2018-05-21T13:16:02.256Z,3.70
2018-05-21T13:18:29.773Z,5.57
2018-05-21T13:20:57.247Z,5.10
2018-05-21T13:23:24.739Z,8.87
2018-05-21T13:25:52.205Z,5.70
2018-05-21T13:28:19.724Z,3.30
2018-05-21T13:30:47.234Z,3.00
2018-05-21T13:33:14.701Z,3.63
2018-05-21T13:35:42.690Z,8.33
2018-05-21T13:38:10.464Z,3.40
2018-05-21T13:40:41.753Z,5.13
2018-05-21T13:43:09.333Z,2.93
2018-05-21T13:45:36.774Z,3.77
2018-05-21T13:48:04.239Z,4.17
2018-05-21T13:50:31.716Z,4.47
2018-05-21T13:52:59.193Z,3.57
2018-05-21T13:55:26.675Z,3.83
2018-05-21T13:57:54.208Z,5.63
2018-05-21T14:00:21.671Z,6.83
2018-05-21T14:02:49.378Z,4.40
2018-05-21T14:05:16.907Z,3.87
2018-05-21T14:07:44.412Z,3.23
2018-05-21T14:10:11.899Z,4.07
2018-05-21T14:12:39.417Z,7.07
2018-05-21T14:15:06.891Z,6.13
2018-05-21T14:17:34.344Z,5.03
2018-05-21T14:20:01.832Z,6.77
2018-05-21T14:22:29.331Z,3.40
2018-05-21T14:24:56.829Z,3.50
2018-05-21T14:27:24.333Z,6.00
2018-05-21T14:29:51.909Z,3.90
2018-05-21T14:32:19.314Z,3.93
2018-05-21T14:34:46.788Z,7.33
2018-05-21T14:37:14.280Z,6.00
2018-05-21T14:39:41.828Z,4.43
2018-05-21T14:42:09.309Z,4.93
2018-05-21T14:44:36.816Z,3.90
2018-05-21T14:47:04.276Z,5.57
2018-05-21T14:49:31.743Z,4.60
2018-05-21T14:51:59.227Z,6.00
2018-05-21T14:54:26.702Z,4.80
2018-05-21T14:56:54.297Z,3.53
2018-05-21T14:59:21.841Z,3.60
2018-05-21T15:01:49.390Z,3.97
2018-05-21T15:04:16.915Z,3.90
2018-05-21T15:06:44.401Z,5.87
2018-05-21T15:09:11.901Z,4.13
2018-05-21T15:11:39.384Z,5.83
2018-05-21T15:14:06.879Z,3.27
2018-05-21T15:16:34.359Z,7.63
2018-05-21T15:19:01.923Z,4.33
2018-05-21T15:21:29.443Z,5.07
2018-05-21T15:23:56.915Z,4.43
2018-05-21T15:26:24.428Z,4.20
2018-05-21T15:28:51.945Z,5.50
2018-05-21T15:31:19.437Z,4.63
2018-05-21T15:33:46.919Z,5.43
2018-05-21T15:36:14.603Z,5.57
2018-05-21T15:38:42.023Z,5.30
2018-05-21T15:41:09.505Z,4.07
2018-05-21T15:43:36.984Z,5.20
2018-05-21T15:46:04.472Z,9.03
2018-05-21T15:48:31.974Z,4.57
2018-05-21T15:50:59.443Z,4.23
2018-05-21T15:53:26.934Z,3.77
2018-05-21T15:55:54.449Z,5.00
2018-05-21T15:58:21.920Z,4.87
2018-05-21T16:00:49.405Z,4.37
2018-05-21T16:03:16.887Z,4.00
2018-05-21T16:05:44.352Z,4.60
2018-05-21T16:08:11.824Z,5.53
2018-05-21T16:10:39.336Z,6.43
2018-05-21T16:13:06.796Z,5.53
2018-05-21T16:15:34.288Z,3.60
2018-05-21T16:18:01.749Z,4.03
2018-05-21T16:20:29.263Z,4.33
2018-05-21T16:22:56.838Z,6.20
2018-05-21T16:25:24.322Z,7.30
2018-05-21T16:27:51.824Z,6.10
2018-05-21T16:30:19.403Z,3.93
2018-05-21T16:32:46.896Z,4.40
2018-05-21T16:35:14.395Z,4.70
2018-05-21T16:37:41.916Z,4.00
2018-05-21T16:40:09.407Z,4.10
2018-05-21T16:42:36.890Z,4.10
2018-05-21T16:45:04.435Z,5.97
2018-05-21T16:47:31.920Z,4.50
2018-05-21T16:49:59.474Z,3.73
2018-05-21T16:52:26.994Z,4.53
2018-05-21T16:54:54.475Z,3.93
2018-05-21T16:57:21.962Z,5.07
2018-05-21T16:59:49.451Z,6.17
2018-05-21T17:02:17.275Z,7.60
2018-05-21T17:04:44.750Z,4.23
2018-05-21T17:07:12.279Z,3.73
2018-05-21T17:09:39.738Z,4.50
2018-05-21T17:12:07.252Z,4.90
2018-05-21T17:14:34.767Z,4.30
2018-05-21T17:17:02.300Z,3.50
2018-05-21T17:19:29.791Z,6.67
2018-05-21T17:21:57.282Z,4.57
2018-05-21T17:24:24.761Z,11.70
2018-05-21T17:26:52.246Z,5.93
2018-05-21T17:29:19.787Z,4.27
2018-05-21T17:31:47.258Z,9.77
2018-05-21T17:34:14.751Z,4.10
2018-05-21T17:36:42.234Z,4.77
2018-05-21T17:39:09.718Z,4.20
2018-05-21T17:41:37.216Z,6.07
2018-05-21T17:44:04.750Z,3.70
2018-05-21T17:46:32.266Z,10.10
2018-05-21T17:48:59.750Z,4.60
2018-05-21T17:51:27.251Z,3.50
2018-05-21T17:53:54.764Z,6.47
2018-05-21T17:56:22.276Z,5.17
2018-05-21T17:58:49.810Z,4.77
2018-05-21T18:01:17.629Z,5.13
2018-05-21T18:03:45.350Z,5.73
2018-05-21T18:06:12.810Z,4.37
2018-05-21T18:08:40.326Z,4.20
2018-05-21T18:11:07.881Z,7.57
2018-05-21T18:13:35.371Z,17.17
2018-05-21T18:16:02.840Z,6.27
2018-05-21T18:18:30.402Z,6.97
2018-05-21T18:20:57.882Z,7.87
2018-05-21T18:23:25.376Z,6.00
2018-05-21T18:25:52.861Z,7.13
2018-05-21T18:28:20.442Z,6.30
2018-05-21T18:30:47.953Z,6.90
2018-05-21T18:33:15.690Z,8.10
2018-05-21T18:35:43.387Z,8.70
2018-05-21T18:38:10.868Z,10.43
2018-05-21T18:40:38.437Z,10.67
2018-05-21T18:43:05.892Z,9.53
2018-05-21T18:45:33.427Z,8.43
2018-05-21T18:48:00.896Z,7.43
2018-05-21T18:50:28.397Z,6.33
2018-05-21T18:52:56.126Z,7.07
2018-05-21T18:55:23.666Z,5.93
2018-05-21T18:57:51.146Z,7.77
2018-05-21T19:00:18.621Z,5.43
2018-05-21T19:02:46.099Z,5.60
2018-05-21T19:05:13.634Z,10.60
2018-05-21T19:07:41.129Z,10.17
2018-05-21T19:10:08.653Z,7.53
2018-05-21T19:12:36.169Z,5.77
2018-05-21T19:15:04.563Z,8.17
2018-05-21T19:17:32.140Z,6.83
2018-05-21T19:19:59.641Z,10.60
2018-05-21T19:22:27.116Z,9.30
2018-05-21T19:24:54.660Z,8.43
2018-05-21T19:27:22.232Z,6.57
2018-05-21T19:29:49.747Z,11.13
2018-05-21T19:32:17.646Z,7.47
2018-05-21T19:34:45.226Z,5.63
2018-05-21T19:37:12.794Z,6.70
2018-05-21T19:39:40.286Z,11.00
2018-05-21T19:42:07.839Z,6.70
2018-05-21T19:44:35.309Z,14.43
2018-05-21T19:47:03.003Z,9.93
2018-05-21T19:49:30.539Z,9.97
2018-05-21T19:51:58.006Z,7.90
2018-05-21T19:54:25.531Z,10.20
2018-05-21T19:56:53.026Z,10.63
2018-05-21T19:59:21.299Z,9.50
2018-05-21T20:01:48.820Z,6.50
2018-05-21T20:04:16.340Z,7.47
2018-05-21T20:06:43.834Z,9.93
2018-05-21T20:09:11.325Z,7.20
2018-05-21T20:11:40.080Z,11.40
2018-05-21T20:14:07.708Z,8.83
2018-05-21T20:16:35.269Z,10.90
2018-05-21T20:19:02.773Z,9.70
2018-05-21T20:23:56.763Z,11.13
2018-05-21T20:26:24.338Z,11.60
2018-05-21T20:28:52.018Z,10.27
2018-05-21T20:31:20.607Z,8.30
2018-05-21T20:36:39.020Z,8.00
2018-05-21T20:39:06.964Z,8.07
2018-05-21T20:41:34.898Z,12.63
2018-05-21T20:44:02.463Z,7.70
2018-05-21T20:46:29.998Z,7.50
2018-05-21T20:48:57.542Z,11.20
2018-05-21T20:51:25.137Z,8.03
2018-05-21T20:53:53.432Z,11.93
2018-05-21T20:56:21.370Z,12.30
2018-05-21T21:01:29.451Z,14.00
2018-05-21T21:03:58.692Z,9.60
2018-05-21T21:06:26.185Z,9.87
2018-05-21T21:08:53.693Z,9.37
2018-05-21T21:11:21.231Z,9.23
2018-05-21T21:13:48.723Z,13.00
2018-05-21T21:16:16.411Z,11.53
2018-05-21T21:18:44.002Z,10.70
2018-05-21T21:21:11.776Z,8.67
2018-05-21T21:23:39.936Z,11.07
2018-05-21T21:26:07.735Z,10.17
2018-05-21T21:28:35.299Z,10.53
2018-05-21T21:31:02.926Z,15.93
2018-05-21T21:33:32.436Z,11.00
2018-05-21T21:36:01.157Z,10.60
2018-05-21T21:51:33.976Z,9.00
2018-05-21T21:54:01.617Z,11.33
2018-05-21T21:56:30.495Z,11.77
2018-05-21T21:59:00.033Z,10.47
2018-05-21T22:01:28.628Z,12.60
2018-05-21T22:03:56.269Z,10.27
2018-05-21T22:06:28.714Z,10.50
2018-05-21T22:08:59.074Z,10.00
2018-05-21T22:11:27.317Z,8.50
2018-05-21T22:13:56.708Z,10.03
2018-05-21T22:16:24.414Z,9.53
2018-05-21T22:18:55.065Z,12.73
2018-05-21T22:21:23.533Z,13.60
2018-05-21T22:23:52.542Z,13.13
2018-05-21T22:26:20.207Z,12.90
2018-05-21T22:28:49.235Z,12.80
2018-05-21T22:31:16.943Z,11.30
2018-05-21T22:33:46.549Z,16.03
2018-05-21T22:36:14.117Z,9.67
2018-05-21T22:38:41.611Z,14.10
2018-05-21T22:41:10.249Z,9.87
2018-05-21T22:43:41.286Z,13.33
2018-05-21T22:46:09.428Z,10.90
2018-05-21T22:48:37.035Z,9.07
2018-05-21T22:51:11.734Z,11.83
2018-05-21T22:53:39.246Z,14.50
2018-05-21T22:56:07.272Z,9.47
2018-05-21T22:58:38.429Z,9.33
2018-05-21T23:01:05.928Z,13.73
2018-05-21T23:03:33.411Z,15.40
2018-05-21T23:06:03.166Z,11.43
2018-05-21T23:08:30.696Z,11.77
2018-05-21T23:11:03.182Z,12.50
2018-05-21T23:13:32.317Z,12.13
2018-05-21T23:16:03.361Z,11.00
2018-05-21T23:18:30.953Z,17.27
2018-05-21T23:20:58.519Z,13.50
2018-05-21T23:23:26.011Z,9.10
2018-05-21T23:25:53.674Z,9.03
2018-05-21T23:28:21.213Z,10.50
2018-05-21T23:30:48.682Z,10.43
2018-05-21T23:33:16.262Z,19.23
2018-05-21T23:35:43.723Z,11.37
2018-05-21T23:38:11.215Z,10.90
2018-05-21T23:40:38.715Z,9.50
2018-05-21T23:43:06.227Z,9.20
2018-05-21T23:45:34.277Z,9.33
2018-05-21T23:48:01.811Z,9.83
2018-05-21T23:50:30.040Z,9.57
2018-05-21T23:52:57.538Z,9.97
2018-05-21T23:55:25.011Z,10.00
2018-05-21T23:57:52.504Z,9.67
